sensor_id;sensor_type;location;lat;lon;timestamp;P1;durP1;ratioP1;P2;durP2;ratioP2
61254;SDS011;47128;47.530;8.584;2024-01-07T00:01:48;10.90;;;5.80;;
61254;SDS011;47128;47.530;8.584;2024-01-07T00:04:18;10.45;;;5.80;;
61254;SDS011;47128;47.530;8.584;2024-01-07T00:06:46;11.68;;;6.35;;
61254;SDS011;47128;47.530;8.584;2024-01-07T00:09:12;10.57;;;5.60;;
61254;SDS011;47128;47.530;8.584;2024-01-07T00:11:38;12.20;;;6.45;;
61254;SDS011;47128;47.530;8.584;2024-01-07T00:14:05;7.47;;;4.60;;
61254;SDS011;47128;47.530;8.584;2024-01-07T00:16:31;8.43;;;4.57;;
61254;SDS011;47128;47.530;8.584;2024-01-07T00:18:57;7.95;;;5.97;;
61254;SDS011;47128;47.530;8.584;2024-01-07T00:21:24;3.63;;;2.72;;
61254;SDS011;47128;47.530;8.584;2024-01-07T00:23:50;4.93;;;2.80;;
61254;SDS011;47128;47.530;8.584;2024-01-07T00:26:16;3.97;;;2.15;;
61254;SDS011;47128;47.530;8.584;2024-01-07T00:28:42;3.90;;;2.30;;
61254;SDS011;47128;47.530;8.584;2024-01-07T00:31:08;2.35;;;1.73;;
61254;SDS011;47128;47.530;8.584;2024-01-07T00:33:37;2.58;;;1.88;;
61254;SDS011;47128;47.530;8.584;2024-01-07T00:36:03;2.17;;;1.90;;
61254;SDS011;47128;47.530;8.584;2024-01-07T00:38:29;2.75;;;1.95;;
61254;SDS011;47128;47.530;8.584;2024-01-07T00:40:56;3.60;;;2.08;;
61254;SDS011;47128;47.530;8.584;2024-01-07T00:43:22;3.33;;;2.28;;
61254;SDS011;47128;47.530;8.584;2024-01-07T00:45:48;3.70;;;2.10;;
61254;SDS011;47128;47.530;8.584;2024-01-07T00:48:14;2.78;;;1.90;;
61254;SDS011;47128;47.530;8.584;2024-01-07T00:50:41;3.95;;;2.33;;
61254;SDS011;47128;47.530;8.584;2024-01-07T00:53:07;3.45;;;2.17;;
61254;SDS011;47128;47.530;8.584;2024-01-07T00:55:34;3.08;;;2.15;;
61254;SDS011;47128;47.530;8.584;2024-01-07T00:58:01;3.22;;;2.55;;
61254;SDS011;47128;47.530;8.584;2024-01-07T01:00:27;4.95;;;2.53;;
61254;SDS011;47128;47.530;8.584;2024-01-07T01:02:54;3.38;;;2.30;;
61254;SDS011;47128;47.530;8.584;2024-01-07T01:05:20;3.67;;;2.33;;
61254;SDS011;47128;47.530;8.584;2024-01-07T01:07:47;2.97;;;2.38;;
61254;SDS011;47128;47.530;8.584;2024-01-07T01:10:13;2.95;;;2.53;;
61254;SDS011;47128;47.530;8.584;2024-01-07T01:12:43;3.28;;;2.05;;
61254;SDS011;47128;47.530;8.584;2024-01-07T01:15:09;3.58;;;2.47;;
61254;SDS011;47128;47.530;8.584;2024-01-07T01:17:36;4.90;;;2.78;;
61254;SDS011;47128;47.530;8.584;2024-01-07T01:20:02;3.35;;;2.35;;
61254;SDS011;47128;47.530;8.584;2024-01-07T01:22:29;4.70;;;2.72;;
61254;SDS011;47128;47.530;8.584;2024-01-07T01:24:55;4.93;;;2.90;;
61254;SDS011;47128;47.530;8.584;2024-01-07T01:27:24;4.25;;;2.40;;
61254;SDS011;47128;47.530;8.584;2024-01-07T01:29:50;4.05;;;2.63;;
61254;SDS011;47128;47.530;8.584;2024-01-07T01:32:19;4.07;;;2.72;;
61254;SDS011;47128;47.530;8.584;2024-01-07T01:34:45;4.95;;;2.75;;
61254;SDS011;47128;47.530;8.584;2024-01-07T01:37:11;4.97;;;2.92;;
61254;SDS011;47128;47.530;8.584;2024-01-07T01:39:41;5.28;;;3.40;;
61254;SDS011;47128;47.530;8.584;2024-01-07T01:42:07;4.70;;;3.10;;
61254;SDS011;47128;47.530;8.584;2024-01-07T01:44:33;5.72;;;3.17;;
61254;SDS011;47128;47.530;8.584;2024-01-07T01:47:00;6.97;;;3.83;;
61254;SDS011;47128;47.530;8.584;2024-01-07T01:49:27;5.20;;;3.55;;
61254;SDS011;47128;47.530;8.584;2024-01-07T01:51:53;5.07;;;3.28;;
61254;SDS011;47128;47.530;8.584;2024-01-07T01:54:19;4.22;;;2.90;;
61254;SDS011;47128;47.530;8.584;2024-01-07T01:56:46;6.05;;;3.35;;
61254;SDS011;47128;47.530;8.584;2024-01-07T01:59:14;5.38;;;3.50;;
61254;SDS011;47128;47.530;8.584;2024-01-07T02:01:41;6.32;;;3.70;;
61254;SDS011;47128;47.530;8.584;2024-01-07T02:04:08;5.63;;;3.38;;
61254;SDS011;47128;47.530;8.584;2024-01-07T02:06:34;6.20;;;3.35;;
61254;SDS011;47128;47.530;8.584;2024-01-07T02:09:01;4.60;;;3.42;;
61254;SDS011;47128;47.530;8.584;2024-01-07T02:11:27;5.13;;;3.53;;
61254;SDS011;47128;47.530;8.584;2024-01-07T02:13:54;7.00;;;3.72;;
61254;SDS011;47128;47.530;8.584;2024-01-07T02:16:23;6.68;;;4.18;;
61254;SDS011;47128;47.530;8.584;2024-01-07T02:18:49;5.35;;;3.60;;
61254;SDS011;47128;47.530;8.584;2024-01-07T02:21:15;5.20;;;3.65;;
61254;SDS011;47128;47.530;8.584;2024-01-07T02:23:41;6.28;;;3.63;;
61254;SDS011;47128;47.530;8.584;2024-01-07T02:26:08;6.38;;;3.70;;
61254;SDS011;47128;47.530;8.584;2024-01-07T02:28:34;5.88;;;3.60;;
61254;SDS011;47128;47.530;8.584;2024-01-07T02:31:00;6.68;;;4.13;;
61254;SDS011;47128;47.530;8.584;2024-01-07T02:33:27;5.47;;;3.30;;
61254;SDS011;47128;47.530;8.584;2024-01-07T02:35:54;5.68;;;3.80;;
61254;SDS011;47128;47.530;8.584;2024-01-07T02:38:20;5.13;;;3.67;;
61254;SDS011;47128;47.530;8.584;2024-01-07T02:40:47;6.13;;;3.83;;
61254;SDS011;47128;47.530;8.584;2024-01-07T02:43:13;5.90;;;3.28;;
61254;SDS011;47128;47.530;8.584;2024-01-07T02:45:39;4.40;;;3.15;;
61254;SDS011;47128;47.530;8.584;2024-01-07T02:48:05;3.38;;;2.70;;
61254;SDS011;47128;47.530;8.584;2024-01-07T02:50:32;4.82;;;3.08;;
61254;SDS011;47128;47.530;8.584;2024-01-07T02:52:58;4.43;;;3.17;;
61254;SDS011;47128;47.530;8.584;2024-01-07T02:55:25;7.63;;;3.50;;
61254;SDS011;47128;47.530;8.584;2024-01-07T02:57:51;5.78;;;3.72;;
61254;SDS011;47128;47.530;8.584;2024-01-07T03:00:17;4.20;;;2.75;;
61254;SDS011;47128;47.530;8.584;2024-01-07T03:02:43;4.93;;;3.28;;
61254;SDS011;47128;47.530;8.584;2024-01-07T03:05:10;5.97;;;3.50;;
61254;SDS011;47128;47.530;8.584;2024-01-07T03:07:37;7.45;;;3.80;;
61254;SDS011;47128;47.530;8.584;2024-01-07T03:10:05;4.18;;;3.03;;
61254;SDS011;47128;47.530;8.584;2024-01-07T03:12:31;5.82;;;3.50;;
61254;SDS011;47128;47.530;8.584;2024-01-07T03:14:57;5.32;;;3.25;;
61254;SDS011;47128;47.530;8.584;2024-01-07T03:17:23;4.30;;;2.90;;
61254;SDS011;47128;47.530;8.584;2024-01-07T03:19:49;4.80;;;3.20;;
61254;SDS011;47128;47.530;8.584;2024-01-07T03:22:16;3.95;;;3.05;;
61254;SDS011;47128;47.530;8.584;2024-01-07T03:24:42;7.13;;;3.15;;
61254;SDS011;47128;47.530;8.584;2024-01-07T03:27:12;5.93;;;3.70;;
61254;SDS011;47128;47.530;8.584;2024-01-07T03:29:39;5.57;;;3.85;;
61254;SDS011;47128;47.530;8.584;2024-01-07T03:32:05;5.35;;;3.88;;
61254;SDS011;47128;47.530;8.584;2024-01-07T03:34:31;5.25;;;3.40;;
61254;SDS011;47128;47.530;8.584;2024-01-07T03:36:58;7.18;;;4.18;;
61254;SDS011;47128;47.530;8.584;2024-01-07T03:39:25;5.60;;;3.42;;
61254;SDS011;47128;47.530;8.584;2024-01-07T03:41:54;5.95;;;3.80;;
61254;SDS011;47128;47.530;8.584;2024-01-07T03:44:21;6.57;;;4.32;;
61254;SDS011;47128;47.530;8.584;2024-01-07T03:46:47;6.22;;;4.13;;
61254;SDS011;47128;47.530;8.584;2024-01-07T03:49:14;6.13;;;3.97;;
61254;SDS011;47128;47.530;8.584;2024-01-07T03:51:40;7.07;;;4.18;;
61254;SDS011;47128;47.530;8.584;2024-01-07T03:54:06;7.40;;;4.35;;
61254;SDS011;47128;47.530;8.584;2024-01-07T03:56:32;7.25;;;4.25;;
61254;SDS011;47128;47.530;8.584;2024-01-07T03:58:58;6.90;;;4.40;;
61254;SDS011;47128;47.530;8.584;2024-01-07T04:01:25;8.45;;;4.78;;
61254;SDS011;47128;47.530;8.584;2024-01-07T04:03:51;7.60;;;4.18;;
61254;SDS011;47128;47.530;8.584;2024-01-07T04:06:17;6.28;;;4.18;;
61254;SDS011;47128;47.530;8.584;2024-01-07T04:08:43;6.20;;;4.05;;
61254;SDS011;47128;47.530;8.584;2024-01-07T04:11:10;6.65;;;4.00;;
61254;SDS011;47128;47.530;8.584;2024-01-07T04:13:36;7.32;;;4.38;;
61254;SDS011;47128;47.530;8.584;2024-01-07T04:16:02;7.75;;;4.35;;
61254;SDS011;47128;47.530;8.584;2024-01-07T04:18:29;6.65;;;3.97;;
61254;SDS011;47128;47.530;8.584;2024-01-07T04:20:55;7.82;;;4.80;;
61254;SDS011;47128;47.530;8.584;2024-01-07T04:23:21;6.03;;;3.63;;
61254;SDS011;47128;47.530;8.584;2024-01-07T04:25:47;7.75;;;4.05;;
61254;SDS011;47128;47.530;8.584;2024-01-07T04:28:13;7.13;;;4.65;;
61254;SDS011;47128;47.530;8.584;2024-01-07T04:30:40;8.13;;;4.22;;
61254;SDS011;47128;47.530;8.584;2024-01-07T04:33:06;6.70;;;4.10;;
61254;SDS011;47128;47.530;8.584;2024-01-07T04:35:32;6.63;;;4.22;;
61254;SDS011;47128;47.530;8.584;2024-01-07T04:37:59;6.50;;;3.78;;
61254;SDS011;47128;47.530;8.584;2024-01-07T04:40:25;7.13;;;3.88;;
61254;SDS011;47128;47.530;8.584;2024-01-07T04:42:51;6.82;;;4.22;;
61254;SDS011;47128;47.530;8.584;2024-01-07T04:45:17;8.50;;;4.35;;
61254;SDS011;47128;47.530;8.584;2024-01-07T04:47:43;7.70;;;4.65;;
61254;SDS011;47128;47.530;8.584;2024-01-07T04:50:09;7.30;;;4.22;;
61254;SDS011;47128;47.530;8.584;2024-01-07T04:52:36;7.75;;;4.60;;
61254;SDS011;47128;47.530;8.584;2024-01-07T04:55:02;9.73;;;4.85;;
61254;SDS011;47128;47.530;8.584;2024-01-07T04:57:29;7.03;;;4.43;;
61254;SDS011;47128;47.530;8.584;2024-01-07T04:59:55;6.30;;;3.90;;
61254;SDS011;47128;47.530;8.584;2024-01-07T05:02:21;8.60;;;4.40;;
61254;SDS011;47128;47.530;8.584;2024-01-07T05:04:48;7.25;;;4.15;;
61254;SDS011;47128;47.530;8.584;2024-01-07T05:07:14;8.18;;;4.47;;
61254;SDS011;47128;47.530;8.584;2024-01-07T05:09:41;8.82;;;5.00;;
61254;SDS011;47128;47.530;8.584;2024-01-07T05:12:07;8.23;;;4.72;;
61254;SDS011;47128;47.530;8.584;2024-01-07T05:14:33;8.50;;;4.90;;
61254;SDS011;47128;47.530;8.584;2024-01-07T05:16:59;7.93;;;4.30;;
61254;SDS011;47128;47.530;8.584;2024-01-07T05:19:26;7.18;;;4.60;;
61254;SDS011;47128;47.530;8.584;2024-01-07T05:21:53;10.10;;;5.32;;
61254;SDS011;47128;47.530;8.584;2024-01-07T05:24:19;8.65;;;4.28;;
61254;SDS011;47128;47.530;8.584;2024-01-07T05:26:45;8.43;;;4.90;;
61254;SDS011;47128;47.530;8.584;2024-01-07T05:29:11;7.45;;;4.65;;
61254;SDS011;47128;47.530;8.584;2024-01-07T05:31:39;8.63;;;4.75;;
61254;SDS011;47128;47.530;8.584;2024-01-07T05:34:05;10.30;;;5.30;;
61254;SDS011;47128;47.530;8.584;2024-01-07T05:36:31;7.65;;;4.65;;
61254;SDS011;47128;47.530;8.584;2024-01-07T05:38:58;7.47;;;4.30;;
61254;SDS011;47128;47.530;8.584;2024-01-07T05:41:24;7.65;;;4.28;;
61254;SDS011;47128;47.530;8.584;2024-01-07T05:43:50;8.55;;;4.50;;
61254;SDS011;47128;47.530;8.584;2024-01-07T05:46:17;7.88;;;4.75;;
61254;SDS011;47128;47.530;8.584;2024-01-07T05:48:44;9.27;;;5.22;;
61254;SDS011;47128;47.530;8.584;2024-01-07T05:51:10;11.90;;;5.68;;
61254;SDS011;47128;47.530;8.584;2024-01-07T05:53:37;8.02;;;4.45;;
61254;SDS011;47128;47.530;8.584;2024-01-07T05:56:03;8.85;;;4.82;;
61254;SDS011;47128;47.530;8.584;2024-01-07T05:58:29;7.57;;;4.22;;
61254;SDS011;47128;47.530;8.584;2024-01-07T06:00:56;8.20;;;4.25;;
61254;SDS011;47128;47.530;8.584;2024-01-07T06:03:22;8.98;;;4.78;;
61254;SDS011;47128;47.530;8.584;2024-01-07T06:05:48;8.80;;;5.10;;
61254;SDS011;47128;47.530;8.584;2024-01-07T06:08:14;9.18;;;5.10;;
61254;SDS011;47128;47.530;8.584;2024-01-07T06:10:41;13.10;;;5.40;;
61254;SDS011;47128;47.530;8.584;2024-01-07T06:13:07;9.32;;;4.97;;
61254;SDS011;47128;47.530;8.584;2024-01-07T06:15:33;11.10;;;5.43;;
61254;SDS011;47128;47.530;8.584;2024-01-07T06:18:02;10.40;;;5.75;;
61254;SDS011;47128;47.530;8.584;2024-01-07T06:20:28;11.55;;;5.97;;
61254;SDS011;47128;47.530;8.584;2024-01-07T06:22:55;10.25;;;5.18;;
61254;SDS011;47128;47.530;8.584;2024-01-07T06:25:24;10.60;;;5.65;;
61254;SDS011;47128;47.530;8.584;2024-01-07T06:27:51;10.65;;;5.10;;
61254;SDS011;47128;47.530;8.584;2024-01-07T06:30:17;8.95;;;5.28;;
61254;SDS011;47128;47.530;8.584;2024-01-07T06:32:44;10.52;;;5.85;;
61254;SDS011;47128;47.530;8.584;2024-01-07T06:35:13;10.75;;;6.70;;
61254;SDS011;47128;47.530;8.584;2024-01-07T06:37:39;10.40;;;5.75;;
61254;SDS011;47128;47.530;8.584;2024-01-07T06:40:06;10.20;;;5.40;;
61254;SDS011;47128;47.530;8.584;2024-01-07T06:42:32;11.93;;;5.70;;
61254;SDS011;47128;47.530;8.584;2024-01-07T06:45:01;9.48;;;5.40;;
61254;SDS011;47128;47.530;8.584;2024-01-07T06:47:27;10.18;;;5.60;;
61254;SDS011;47128;47.530;8.584;2024-01-07T06:49:54;11.73;;;6.85;;
61254;SDS011;47128;47.530;8.584;2024-01-07T06:52:20;8.18;;;5.10;;
61254;SDS011;47128;47.530;8.584;2024-01-07T06:54:46;9.35;;;5.40;;
61254;SDS011;47128;47.530;8.584;2024-01-07T06:57:12;8.85;;;4.90;;
61254;SDS011;47128;47.530;8.584;2024-01-07T06:59:39;9.32;;;5.07;;
61254;SDS011;47128;47.530;8.584;2024-01-07T07:02:05;10.52;;;5.55;;
61254;SDS011;47128;47.530;8.584;2024-01-07T07:04:31;12.20;;;6.57;;
61254;SDS011;47128;47.530;8.584;2024-01-07T07:06:57;12.02;;;6.55;;
61254;SDS011;47128;47.530;8.584;2024-01-07T07:09:25;9.82;;;5.43;;
61254;SDS011;47128;47.530;8.584;2024-01-07T07:11:51;10.93;;;5.35;;
61254;SDS011;47128;47.530;8.584;2024-01-07T07:14:17;8.30;;;5.38;;
61254;SDS011;47128;47.530;8.584;2024-01-07T07:16:44;9.40;;;5.10;;
61254;SDS011;47128;47.530;8.584;2024-01-07T07:19:11;11.68;;;4.93;;
61254;SDS011;47128;47.530;8.584;2024-01-07T07:21:40;9.73;;;5.28;;
61254;SDS011;47128;47.530;8.584;2024-01-07T07:24:06;8.57;;;4.95;;
61254;SDS011;47128;47.530;8.584;2024-01-07T07:26:33;9.07;;;5.25;;
61254;SDS011;47128;47.530;8.584;2024-01-07T07:29:03;9.82;;;5.20;;
61254;SDS011;47128;47.530;8.584;2024-01-07T07:31:29;9.63;;;5.13;;
61254;SDS011;47128;47.530;8.584;2024-01-07T07:33:55;9.05;;;4.70;;
61254;SDS011;47128;47.530;8.584;2024-01-07T07:36:22;8.60;;;5.38;;
61254;SDS011;47128;47.530;8.584;2024-01-07T07:38:49;9.88;;;5.38;;
61254;SDS011;47128;47.530;8.584;2024-01-07T07:41:15;8.77;;;5.00;;
61254;SDS011;47128;47.530;8.584;2024-01-07T07:43:41;9.98;;;5.38;;
61254;SDS011;47128;47.530;8.584;2024-01-07T07:46:08;8.43;;;4.85;;
61254;SDS011;47128;47.530;8.584;2024-01-07T07:48:34;9.50;;;5.07;;
61254;SDS011;47128;47.530;8.584;2024-01-07T07:51:00;10.20;;;5.38;;
61254;SDS011;47128;47.530;8.584;2024-01-07T07:53:26;11.90;;;6.10;;
61254;SDS011;47128;47.530;8.584;2024-01-07T07:55:53;9.20;;;5.18;;
61254;SDS011;47128;47.530;8.584;2024-01-07T07:58:19;12.75;;;5.55;;
61254;SDS011;47128;47.530;8.584;2024-01-07T08:00:45;10.23;;;5.72;;
61254;SDS011;47128;47.530;8.584;2024-01-07T08:03:12;9.15;;;4.93;;
61254;SDS011;47128;47.530;8.584;2024-01-07T08:05:38;9.35;;;4.93;;
61254;SDS011;47128;47.530;8.584;2024-01-07T08:08:06;8.85;;;5.03;;
61254;SDS011;47128;47.530;8.584;2024-01-07T08:10:33;8.88;;;5.40;;
61254;SDS011;47128;47.530;8.584;2024-01-07T08:13:00;10.40;;;5.28;;
61254;SDS011;47128;47.530;8.584;2024-01-07T08:15:26;10.88;;;5.70;;
61254;SDS011;47128;47.530;8.584;2024-01-07T08:17:53;8.63;;;5.10;;
61254;SDS011;47128;47.530;8.584;2024-01-07T08:20:19;7.63;;;4.97;;
61254;SDS011;47128;47.530;8.584;2024-01-07T08:22:45;10.98;;;5.40;;
61254;SDS011;47128;47.530;8.584;2024-01-07T08:25:11;8.98;;;5.10;;
61254;SDS011;47128;47.530;8.584;2024-01-07T08:27:40;8.80;;;5.57;;
61254;SDS011;47128;47.530;8.584;2024-01-07T08:30:06;9.95;;;4.88;;
61254;SDS011;47128;47.530;8.584;2024-01-07T08:32:32;9.23;;;5.43;;
61254;SDS011;47128;47.530;8.584;2024-01-07T08:35:00;10.30;;;6.22;;
61254;SDS011;47128;47.530;8.584;2024-01-07T08:37:26;11.13;;;6.15;;
61254;SDS011;47128;47.530;8.584;2024-01-07T08:39:52;12.75;;;7.20;;
61254;SDS011;47128;47.530;8.584;2024-01-07T08:42:19;11.27;;;6.30;;
61254;SDS011;47128;47.530;8.584;2024-01-07T08:44:45;9.95;;;6.03;;
61254;SDS011;47128;47.530;8.584;2024-01-07T08:47:12;11.25;;;6.75;;
61254;SDS011;47128;47.530;8.584;2024-01-07T08:49:39;12.57;;;6.40;;
61254;SDS011;47128;47.530;8.584;2024-01-07T08:52:06;10.38;;;6.25;;
61254;SDS011;47128;47.530;8.584;2024-01-07T08:54:35;10.10;;;5.95;;
61254;SDS011;47128;47.530;8.584;2024-01-07T08:57:01;11.25;;;6.25;;
61254;SDS011;47128;47.530;8.584;2024-01-07T08:59:27;13.18;;;7.53;;
61254;SDS011;47128;47.530;8.584;2024-01-07T09:01:53;15.10;;;8.43;;
61254;SDS011;47128;47.530;8.584;2024-01-07T09:04:19;11.27;;;7.00;;
61254;SDS011;47128;47.530;8.584;2024-01-07T09:06:46;10.80;;;6.65;;
61254;SDS011;47128;47.530;8.584;2024-01-07T09:09:12;10.70;;;5.85;;
61254;SDS011;47128;47.530;8.584;2024-01-07T09:11:39;9.15;;;4.78;;
61254;SDS011;47128;47.530;8.584;2024-01-07T09:14:05;7.60;;;4.78;;
61254;SDS011;47128;47.530;8.584;2024-01-07T09:16:31;7.70;;;4.45;;
61254;SDS011;47128;47.530;8.584;2024-01-07T09:18:57;8.65;;;4.47;;
61254;SDS011;47128;47.530;8.584;2024-01-07T09:21:23;13.35;;;5.75;;
61254;SDS011;47128;47.530;8.584;2024-01-07T09:23:50;8.88;;;4.40;;
61254;SDS011;47128;47.530;8.584;2024-01-07T09:26:17;8.30;;;4.53;;
61254;SDS011;47128;47.530;8.584;2024-01-07T09:28:43;6.35;;;3.92;;
61254;SDS011;47128;47.530;8.584;2024-01-07T09:31:09;6.90;;;4.20;;
61254;SDS011;47128;47.530;8.584;2024-01-07T09:33:35;9.20;;;4.18;;
61254;SDS011;47128;47.530;8.584;2024-01-07T09:36:02;7.68;;;4.28;;
61254;SDS011;47128;47.530;8.584;2024-01-07T09:38:28;5.35;;;3.70;;
61254;SDS011;47128;47.530;8.584;2024-01-07T09:40:54;7.68;;;4.03;;
61254;SDS011;47128;47.530;8.584;2024-01-07T09:43:21;7.90;;;4.10;;
61254;SDS011;47128;47.530;8.584;2024-01-07T09:45:47;6.63;;;3.40;;
61254;SDS011;47128;47.530;8.584;2024-01-07T09:48:13;7.22;;;4.03;;
61254;SDS011;47128;47.530;8.584;2024-01-07T09:50:40;7.38;;;3.92;;
61254;SDS011;47128;47.530;8.584;2024-01-07T09:53:06;7.63;;;4.68;;
61254;SDS011;47128;47.530;8.584;2024-01-07T09:55:33;8.00;;;4.03;;
61254;SDS011;47128;47.530;8.584;2024-01-07T09:58:03;7.32;;;3.80;;
61254;SDS011;47128;47.530;8.584;2024-01-07T10:00:29;6.15;;;3.88;;
61254;SDS011;47128;47.530;8.584;2024-01-07T10:02:56;5.88;;;3.72;;
61254;SDS011;47128;47.530;8.584;2024-01-07T10:05:22;7.85;;;4.13;;
61254;SDS011;47128;47.530;8.584;2024-01-07T10:07:48;7.45;;;4.13;;
61254;SDS011;47128;47.530;8.584;2024-01-07T10:10:14;9.52;;;4.68;;
61254;SDS011;47128;47.530;8.584;2024-01-07T10:12:43;7.93;;;4.20;;
61254;SDS011;47128;47.530;8.584;2024-01-07T10:15:10;7.45;;;4.32;;
61254;SDS011;47128;47.530;8.584;2024-01-07T10:17:36;7.10;;;4.22;;
61254;SDS011;47128;47.530;8.584;2024-01-07T10:20:05;7.18;;;3.95;;
61254;SDS011;47128;47.530;8.584;2024-01-07T10:22:34;8.02;;;4.10;;
61254;SDS011;47128;47.530;8.584;2024-01-07T10:25:01;7.28;;;4.15;;
61254;SDS011;47128;47.530;8.584;2024-01-07T10:27:27;8.13;;;4.20;;
61254;SDS011;47128;47.530;8.584;2024-01-07T10:29:54;7.00;;;3.95;;
61254;SDS011;47128;47.530;8.584;2024-01-07T10:32:20;6.20;;;3.80;;
61254;SDS011;47128;47.530;8.584;2024-01-07T10:34:46;7.55;;;3.47;;
61254;SDS011;47128;47.530;8.584;2024-01-07T10:37:13;6.85;;;3.53;;
61254;SDS011;47128;47.530;8.584;2024-01-07T10:39:39;7.45;;;3.40;;
61254;SDS011;47128;47.530;8.584;2024-01-07T10:42:05;7.35;;;3.75;;
61254;SDS011;47128;47.530;8.584;2024-01-07T10:44:32;5.68;;;3.60;;
61254;SDS011;47128;47.530;8.584;2024-01-07T10:46:59;5.80;;;3.53;;
61254;SDS011;47128;47.530;8.584;2024-01-07T10:49:27;6.75;;;3.60;;
61254;SDS011;47128;47.530;8.584;2024-01-07T10:52:03;8.02;;;3.92;;
61254;SDS011;47128;47.530;8.584;2024-01-07T10:54:30;5.72;;;3.78;;
61254;SDS011;47128;47.530;8.584;2024-01-07T10:56:58;6.32;;;3.72;;
61254;SDS011;47128;47.530;8.584;2024-01-07T10:59:26;5.97;;;3.50;;
61254;SDS011;47128;47.530;8.584;2024-01-07T11:01:53;7.45;;;4.30;;
61254;SDS011;47128;47.530;8.584;2024-01-07T11:04:23;6.97;;;3.63;;
61254;SDS011;47128;47.530;8.584;2024-01-07T11:06:57;5.82;;;3.30;;
61254;SDS011;47128;47.530;8.584;2024-01-07T11:09:33;6.10;;;3.13;;
61254;SDS011;47128;47.530;8.584;2024-01-07T11:12:01;6.75;;;3.55;;
61254;SDS011;47128;47.530;8.584;2024-01-07T11:14:36;6.93;;;4.05;;
61254;SDS011;47128;47.530;8.584;2024-01-07T11:17:03;5.77;;;3.80;;
61254;SDS011;47128;47.530;8.584;2024-01-07T11:19:29;5.70;;;3.58;;
61254;SDS011;47128;47.530;8.584;2024-01-07T11:24:43;5.75;;;3.60;;
61254;SDS011;47128;47.530;8.584;2024-01-07T11:27:09;6.75;;;3.97;;
61254;SDS011;47128;47.530;8.584;2024-01-07T11:29:38;7.10;;;4.38;;
61254;SDS011;47128;47.530;8.584;2024-01-07T11:32:05;7.28;;;4.53;;
61254;SDS011;47128;47.530;8.584;2024-01-07T11:34:38;5.63;;;3.50;;
61254;SDS011;47128;47.530;8.584;2024-01-07T11:37:12;6.40;;;3.72;;
61254;SDS011;47128;47.530;8.584;2024-01-07T11:39:42;6.32;;;3.60;;
61254;SDS011;47128;47.530;8.584;2024-01-07T11:42:09;5.45;;;3.20;;
61254;SDS011;47128;47.530;8.584;2024-01-07T11:44:37;6.63;;;3.80;;
61254;SDS011;47128;47.530;8.584;2024-01-07T11:47:06;8.52;;;4.47;;
61254;SDS011;47128;47.530;8.584;2024-01-07T11:49:32;4.72;;;3.50;;
61254;SDS011;47128;47.530;8.584;2024-01-07T11:51:58;6.38;;;3.78;;
61254;SDS011;47128;47.530;8.584;2024-01-07T11:54:26;5.07;;;3.67;;
61254;SDS011;47128;47.530;8.584;2024-01-07T11:56:53;6.22;;;4.13;;
61254;SDS011;47128;47.530;8.584;2024-01-07T11:59:19;8.48;;;5.00;;
61254;SDS011;47128;47.530;8.584;2024-01-07T12:01:46;8.68;;;4.75;;
61254;SDS011;47128;47.530;8.584;2024-01-07T12:04:12;8.85;;;4.43;;
61254;SDS011;47128;47.530;8.584;2024-01-07T12:06:38;5.65;;;4.10;;
61254;SDS011;47128;47.530;8.584;2024-01-07T12:09:05;6.60;;;4.07;;
61254;SDS011;47128;47.530;8.584;2024-01-07T12:11:31;6.30;;;4.13;;
61254;SDS011;47128;47.530;8.584;2024-01-07T12:13:57;5.57;;;3.90;;
61254;SDS011;47128;47.530;8.584;2024-01-07T12:16:25;6.53;;;4.10;;
61254;SDS011;47128;47.530;8.584;2024-01-07T12:18:51;9.68;;;5.82;;
61254;SDS011;47128;47.530;8.584;2024-01-07T12:21:21;8.45;;;4.20;;
61254;SDS011;47128;47.530;8.584;2024-01-07T12:23:50;6.45;;;4.00;;
61254;SDS011;47128;47.530;8.584;2024-01-07T12:26:16;6.43;;;4.03;;
61254;SDS011;47128;47.530;8.584;2024-01-07T12:28:44;7.80;;;4.75;;
61254;SDS011;47128;47.530;8.584;2024-01-07T12:31:10;6.57;;;4.30;;
61254;SDS011;47128;47.530;8.584;2024-01-07T12:33:37;6.57;;;4.40;;
61254;SDS011;47128;47.530;8.584;2024-01-07T12:36:05;8.32;;;4.78;;
61254;SDS011;47128;47.530;8.584;2024-01-07T12:38:32;6.78;;;4.18;;
61254;SDS011;47128;47.530;8.584;2024-01-07T12:40:58;6.78;;;4.10;;
61254;SDS011;47128;47.530;8.584;2024-01-07T12:43:24;7.22;;;4.38;;
61254;SDS011;47128;47.530;8.584;2024-01-07T12:45:51;6.18;;;4.25;;
61254;SDS011;47128;47.530;8.584;2024-01-07T12:48:17;6.68;;;4.22;;
61254;SDS011;47128;47.530;8.584;2024-01-07T12:50:43;7.15;;;4.88;;
61254;SDS011;47128;47.530;8.584;2024-01-07T12:53:10;6.25;;;4.30;;
61254;SDS011;47128;47.530;8.584;2024-01-07T12:55:36;6.68;;;4.38;;
61254;SDS011;47128;47.530;8.584;2024-01-07T12:58:05;7.30;;;4.13;;
61254;SDS011;47128;47.530;8.584;2024-01-07T13:00:32;6.07;;;4.03;;
61254;SDS011;47128;47.530;8.584;2024-01-07T13:03:00;8.80;;;4.13;;
61254;SDS011;47128;47.530;8.584;2024-01-07T13:05:26;6.95;;;4.13;;
61254;SDS011;47128;47.530;8.584;2024-01-07T13:07:53;5.82;;;4.35;;
61254;SDS011;47128;47.530;8.584;2024-01-07T13:10:19;6.68;;;4.35;;
61254;SDS011;47128;47.530;8.584;2024-01-07T13:12:45;6.00;;;3.75;;
61254;SDS011;47128;47.530;8.584;2024-01-07T13:15:11;6.35;;;4.05;;
61254;SDS011;47128;47.530;8.584;2024-01-07T13:17:38;6.80;;;4.03;;
61254;SDS011;47128;47.530;8.584;2024-01-07T13:20:04;7.07;;;4.22;;
61254;SDS011;47128;47.530;8.584;2024-01-07T13:22:31;7.22;;;4.55;;
61254;SDS011;47128;47.530;8.584;2024-01-07T13:24:58;6.95;;;4.13;;
61254;SDS011;47128;47.530;8.584;2024-01-07T13:27:24;8.02;;;4.32;;
61254;SDS011;47128;47.530;8.584;2024-01-07T13:29:51;8.07;;;4.22;;
61254;SDS011;47128;47.530;8.584;2024-01-07T13:32:17;7.40;;;4.55;;
61254;SDS011;47128;47.530;8.584;2024-01-07T13:34:44;8.52;;;5.72;;
61254;SDS011;47128;47.530;8.584;2024-01-07T13:37:10;9.38;;;5.28;;
61254;SDS011;47128;47.530;8.584;2024-01-07T13:39:36;6.78;;;4.40;;
61254;SDS011;47128;47.530;8.584;2024-01-07T13:42:03;8.15;;;4.20;;
61254;SDS011;47128;47.530;8.584;2024-01-07T13:44:30;6.30;;;4.38;;
61254;SDS011;47128;47.530;8.584;2024-01-07T13:46:56;6.15;;;4.28;;
61254;SDS011;47128;47.530;8.584;2024-01-07T13:49:22;8.02;;;4.57;;
61254;SDS011;47128;47.530;8.584;2024-01-07T13:51:49;6.45;;;3.90;;
61254;SDS011;47128;47.530;8.584;2024-01-07T13:54:15;6.82;;;4.05;;
61254;SDS011;47128;47.530;8.584;2024-01-07T13:56:41;7.22;;;4.03;;
61254;SDS011;47128;47.530;8.584;2024-01-07T13:59:09;5.72;;;3.92;;
61254;SDS011;47128;47.530;8.584;2024-01-07T14:01:35;7.50;;;4.40;;
61254;SDS011;47128;47.530;8.584;2024-01-07T14:04:02;7.28;;;4.40;;
61254;SDS011;47128;47.530;8.584;2024-01-07T14:06:28;5.88;;;4.32;;
61254;SDS011;47128;47.530;8.584;2024-01-07T14:08:55;7.10;;;4.20;;
61254;SDS011;47128;47.530;8.584;2024-01-07T14:11:21;6.20;;;4.05;;
61254;SDS011;47128;47.530;8.584;2024-01-07T14:13:47;7.95;;;4.22;;
61254;SDS011;47128;47.530;8.584;2024-01-07T14:16:14;6.47;;;3.97;;
61254;SDS011;47128;47.530;8.584;2024-01-07T14:18:40;7.45;;;4.10;;
61254;SDS011;47128;47.530;8.584;2024-01-07T14:21:06;9.02;;;4.85;;
61254;SDS011;47128;47.530;8.584;2024-01-07T14:23:33;9.73;;;4.80;;
61254;SDS011;47128;47.530;8.584;2024-01-07T14:26:00;7.18;;;4.30;;
61254;SDS011;47128;47.530;8.584;2024-01-07T14:28:27;8.57;;;5.03;;
61254;SDS011;47128;47.530;8.584;2024-01-07T14:30:53;8.95;;;4.45;;
61254;SDS011;47128;47.530;8.584;2024-01-07T14:33:20;7.93;;;4.95;;
61254;SDS011;47128;47.530;8.584;2024-01-07T14:35:46;6.70;;;4.07;;
61254;SDS011;47128;47.530;8.584;2024-01-07T14:38:12;11.82;;;5.75;;
61254;SDS011;47128;47.530;8.584;2024-01-07T14:40:38;12.13;;;6.35;;
61254;SDS011;47128;47.530;8.584;2024-01-07T14:43:06;11.27;;;7.55;;
61254;SDS011;47128;47.530;8.584;2024-01-07T14:45:33;7.28;;;5.38;;